sensor_id;sensor_type;location;lat;lon;timestamp;P1;durP1;ratioP1;P2;durP2;ratioP2
13483;SDS011;6814;57.786;12.080;2023-01-08T00:01:18;36.00;;;19.53;;
13483;SDS011;6814;57.786;12.080;2023-01-08T00:03:46;43.93;;;20.67;;
13483;SDS011;6814;57.786;12.080;2023-01-08T00:06:13;40.47;;;19.57;;
13483;SDS011;6814;57.786;12.080;2023-01-08T00:08:40;39.13;;;20.23;;
13483;SDS011;6814;57.786;12.080;2023-01-08T00:11:06;43.40;;;19.90;;
13483;SDS011;6814;57.786;12.080;2023-01-08T00:13:33;38.70;;;19.03;;
13483;SDS011;6814;57.786;12.080;2023-01-08T00:16:03;39.17;;;19.50;;
13483;SDS011;6814;57.786;12.080;2023-01-08T00:18:29;35.13;;;17.50;;
13483;SDS011;6814;57.786;12.080;2023-01-08T00:20:57;38.97;;;17.83;;
13483;SDS011;6814;57.786;12.080;2023-01-08T00:23:24;38.97;;;19.13;;
13483;SDS011;6814;57.786;12.080;2023-01-08T00:25:50;37.90;;;19.03;;
13483;SDS011;6814;57.786;12.080;2023-01-08T00:28:17;38.33;;;19.10;;
13483;SDS011;6814;57.786;12.080;2023-01-08T00:30:45;39.17;;;19.33;;
13483;SDS011;6814;57.786;12.080;2023-01-08T00:33:11;37.80;;;18.17;;
13483;SDS011;6814;57.786;12.080;2023-01-08T00:35:38;35.37;;;17.67;;
13483;SDS011;6814;57.786;12.080;2023-01-08T00:38:05;33.90;;;18.10;;
13483;SDS011;6814;57.786;12.080;2023-01-08T00:40:32;35.63;;;18.03;;
13483;SDS011;6814;57.786;12.080;2023-01-08T00:42:59;33.27;;;17.77;;
13483;SDS011;6814;57.786;12.080;2023-01-08T00:45:25;30.20;;;16.77;;
13483;SDS011;6814;57.786;12.080;2023-01-08T00:47:52;31.47;;;17.77;;
13483;SDS011;6814;57.786;12.080;2023-01-08T00:50:18;30.70;;;17.00;;
13483;SDS011;6814;57.786;12.080;2023-01-08T00:52:44;28.60;;;16.73;;
13483;SDS011;6814;57.786;12.080;2023-01-08T00:55:12;27.70;;;16.87;;
13483;SDS011;6814;57.786;12.080;2023-01-08T00:57:39;25.87;;;16.20;;
13483;SDS011;6814;57.786;12.080;2023-01-08T01:00:06;28.33;;;16.50;;
13483;SDS011;6814;57.786;12.080;2023-01-08T01:02:33;26.30;;;16.13;;
13483;SDS011;6814;57.786;12.080;2023-01-08T01:04:59;26.77;;;15.90;;
13483;SDS011;6814;57.786;12.080;2023-01-08T01:07:26;22.60;;;15.30;;
13483;SDS011;6814;57.786;12.080;2023-01-08T01:09:52;26.47;;;16.43;;
13483;SDS011;6814;57.786;12.080;2023-01-08T01:12:20;26.33;;;15.77;;
13483;SDS011;6814;57.786;12.080;2023-01-08T01:14:46;25.47;;;16.43;;
13483;SDS011;6814;57.786;12.080;2023-01-08T01:17:13;26.17;;;15.03;;
13483;SDS011;6814;57.786;12.080;2023-01-08T01:19:39;22.13;;;15.50;;
13483;SDS011;6814;57.786;12.080;2023-01-08T01:22:06;24.37;;;14.43;;
13483;SDS011;6814;57.786;12.080;2023-01-08T01:24:32;24.10;;;14.90;;
13483;SDS011;6814;57.786;12.080;2023-01-08T01:26:59;21.10;;;14.10;;
13483;SDS011;6814;57.786;12.080;2023-01-08T01:29:26;20.00;;;14.13;;
13483;SDS011;6814;57.786;12.080;2023-01-08T01:31:53;22.40;;;14.67;;
13483;SDS011;6814;57.786;12.080;2023-01-08T01:34:19;20.73;;;13.87;;
13483;SDS011;6814;57.786;12.080;2023-01-08T01:36:46;19.60;;;13.97;;
13483;SDS011;6814;57.786;12.080;2023-01-08T01:39:12;18.17;;;13.17;;
13483;SDS011;6814;57.786;12.080;2023-01-08T01:41:39;19.17;;;13.33;;
13483;SDS011;6814;57.786;12.080;2023-01-08T01:46:51;18.77;;;13.20;;
13483;SDS011;6814;57.786;12.080;2023-01-08T01:49:18;16.50;;;12.83;;
13483;SDS011;6814;57.786;12.080;2023-01-08T01:51:46;18.67;;;12.83;;
13483;SDS011;6814;57.786;12.080;2023-01-08T01:54:13;18.87;;;13.47;;
13483;SDS011;6814;57.786;12.080;2023-01-08T01:56:40;15.57;;;11.70;;
13483;SDS011;6814;57.786;12.080;2023-01-08T01:59:08;16.93;;;12.30;;
13483;SDS011;6814;57.786;12.080;2023-01-08T02:01:34;17.27;;;11.90;;
13483;SDS011;6814;57.786;12.080;2023-01-08T02:04:03;17.40;;;11.30;;
13483;SDS011;6814;57.786;12.080;2023-01-08T02:06:33;17.73;;;11.37;;
13483;SDS011;6814;57.786;12.080;2023-01-08T02:09:00;15.47;;;11.47;;
13483;SDS011;6814;57.786;12.080;2023-01-08T02:11:29;15.37;;;11.17;;
13483;SDS011;6814;57.786;12.080;2023-01-08T02:13:58;15.27;;;10.83;;
13483;SDS011;6814;57.786;12.080;2023-01-08T02:16:26;13.13;;;10.70;;
13483;SDS011;6814;57.786;12.080;2023-01-08T02:18:55;14.20;;;10.77;;
13483;SDS011;6814;57.786;12.080;2023-01-08T02:21:27;13.83;;;10.30;;
13483;SDS011;6814;57.786;12.080;2023-01-08T02:23:56;11.47;;;9.30;;
13483;SDS011;6814;57.786;12.080;2023-01-08T02:26:25;12.87;;;10.60;;
13483;SDS011;6814;57.786;12.080;2023-01-08T02:28:54;13.40;;;10.00;;
13483;SDS011;6814;57.786;12.080;2023-01-08T02:31:21;12.83;;;9.77;;
13483;SDS011;6814;57.786;12.080;2023-01-08T02:33:48;12.30;;;9.10;;
13483;SDS011;6814;57.786;12.080;2023-01-08T02:36:25;11.63;;;8.77;;
13483;SDS011;6814;57.786;12.080;2023-01-08T02:39:05;11.70;;;8.97;;
13483;SDS011;6814;57.786;12.080;2023-01-08T02:41:38;11.03;;;9.17;;
13483;SDS011;6814;57.786;12.080;2023-01-08T02:44:08;11.90;;;8.80;;
13483;SDS011;6814;57.786;12.080;2023-01-08T02:46:38;10.67;;;8.07;;
13483;SDS011;6814;57.786;12.080;2023-01-08T02:49:06;10.27;;;8.77;;
13483;SDS011;6814;57.786;12.080;2023-01-08T02:51:34;9.70;;;8.30;;
13483;SDS011;6814;57.786;12.080;2023-01-08T02:54:05;9.53;;;8.23;;
13483;SDS011;6814;57.786;12.080;2023-01-08T02:56:33;10.40;;;8.50;;
13483;SDS011;6814;57.786;12.080;2023-01-08T02:59:01;10.77;;;8.50;;
13483;SDS011;6814;57.786;12.080;2023-01-08T03:01:28;8.87;;;7.97;;
13483;SDS011;6814;57.786;12.080;2023-01-08T03:03:55;9.63;;;7.73;;
13483;SDS011;6814;57.786;12.080;2023-01-08T03:06:23;10.37;;;8.40;;
13483;SDS011;6814;57.786;12.080;2023-01-08T03:08:51;8.83;;;7.93;;
13483;SDS011;6814;57.786;12.080;2023-01-08T03:11:18;9.80;;;8.17;;
13483;SDS011;6814;57.786;12.080;2023-01-08T03:13:46;10.93;;;7.93;;
13483;SDS011;6814;57.786;12.080;2023-01-08T03:16:18;9.30;;;8.00;;
13483;SDS011;6814;57.786;12.080;2023-01-08T03:18:48;9.23;;;7.70;;
13483;SDS011;6814;57.786;12.080;2023-01-08T03:21:16;10.37;;;7.93;;
13483;SDS011;6814;57.786;12.080;2023-01-08T03:23:44;8.63;;;7.70;;
13483;SDS011;6814;57.786;12.080;2023-01-08T03:26:12;9.60;;;7.73;;
13483;SDS011;6814;57.786;12.080;2023-01-08T03:28:40;10.53;;;8.77;;
13483;SDS011;6814;57.786;12.080;2023-01-08T03:31:09;10.03;;;8.00;;
13483;SDS011;6814;57.786;12.080;2023-01-08T03:33:38;10.13;;;8.03;;
13483;SDS011;6814;57.786;12.080;2023-01-08T03:36:05;11.77;;;8.47;;
13483;SDS011;6814;57.786;12.080;2023-01-08T03:38:32;10.90;;;7.77;;
13483;SDS011;6814;57.786;12.080;2023-01-08T03:41:00;10.33;;;8.57;;
13483;SDS011;6814;57.786;12.080;2023-01-08T03:43:28;10.50;;;8.73;;
13483;SDS011;6814;57.786;12.080;2023-01-08T03:45:55;9.23;;;8.33;;
13483;SDS011;6814;57.786;12.080;2023-01-08T03:48:23;11.63;;;8.23;;
13483;SDS011;6814;57.786;12.080;2023-01-08T03:50:51;11.03;;;8.40;;
13483;SDS011;6814;57.786;12.080;2023-01-08T03:53:18;10.23;;;9.17;;
13483;SDS011;6814;57.786;12.080;2023-01-08T03:55:44;9.53;;;8.50;;
13483;SDS011;6814;57.786;12.080;2023-01-08T03:58:11;10.27;;;8.73;;
13483;SDS011;6814;57.786;12.080;2023-01-08T04:00:37;11.40;;;8.63;;
13483;SDS011;6814;57.786;12.080;2023-01-08T04:03:04;11.33;;;9.17;;
13483;SDS011;6814;57.786;12.080;2023-01-08T04:05:30;10.00;;;8.53;;
13483;SDS011;6814;57.786;12.080;2023-01-08T04:07:58;11.27;;;9.40;;
13483;SDS011;6814;57.786;12.080;2023-01-08T04:10:25;11.97;;;9.20;;
13483;SDS011;6814;57.786;12.080;2023-01-08T04:12:51;10.43;;;8.80;;
13483;SDS011;6814;57.786;12.080;2023-01-08T04:15:17;10.87;;;8.73;;
13483;SDS011;6814;57.786;12.080;2023-01-08T04:17:44;9.90;;;8.90;;
13483;SDS011;6814;57.786;12.080;2023-01-08T04:20:10;11.00;;;8.97;;
13483;SDS011;6814;57.786;12.080;2023-01-08T04:22:37;9.80;;;8.80;;
13483;SDS011;6814;57.786;12.080;2023-01-08T04:25:05;9.97;;;9.00;;
13483;SDS011;6814;57.786;12.080;2023-01-08T04:27:32;9.97;;;8.97;;
13483;SDS011;6814;57.786;12.080;2023-01-08T04:29:58;10.27;;;8.83;;
13483;SDS011;6814;57.786;12.080;2023-01-08T04:32:24;10.87;;;9.17;;
13483;SDS011;6814;57.786;12.080;2023-01-08T04:34:51;10.70;;;9.40;;
13483;SDS011;6814;57.786;12.080;2023-01-08T04:37:17;10.77;;;9.67;;
13483;SDS011;6814;57.786;12.080;2023-01-08T04:39:43;10.27;;;9.17;;
13483;SDS011;6814;57.786;12.080;2023-01-08T04:42:11;11.60;;;9.80;;
13483;SDS011;6814;57.786;12.080;2023-01-08T04:44:38;11.20;;;10.03;;
13483;SDS011;6814;57.786;12.080;2023-01-08T04:47:04;14.03;;;9.50;;
13483;SDS011;6814;57.786;12.080;2023-01-08T04:49:30;10.80;;;9.07;;
13483;SDS011;6814;57.786;12.080;2023-01-08T04:51:57;12.13;;;9.63;;
13483;SDS011;6814;57.786;12.080;2023-01-08T04:54:23;11.10;;;10.00;;
13483;SDS011;6814;57.786;12.080;2023-01-08T04:56:50;12.77;;;9.83;;
13483;SDS011;6814;57.786;12.080;2023-01-08T04:59:18;10.17;;;9.13;;
13483;SDS011;6814;57.786;12.080;2023-01-08T05:01:44;11.53;;;9.27;;
13483;SDS011;6814;57.786;12.080;2023-01-08T05:04:11;9.40;;;8.03;;
13483;SDS011;6814;57.786;12.080;2023-01-08T05:06:37;11.17;;;9.87;;
13483;SDS011;6814;57.786;12.080;2023-01-08T05:09:03;10.80;;;9.70;;
13483;SDS011;6814;57.786;12.080;2023-01-08T05:11:30;10.80;;;9.70;;
13483;SDS011;6814;57.786;12.080;2023-01-08T05:13:56;11.53;;;9.50;;
13483;SDS011;6814;57.786;12.080;2023-01-08T05:16:24;9.70;;;8.70;;
13483;SDS011;6814;57.786;12.080;2023-01-08T05:18:50;12.13;;;9.77;;
13483;SDS011;6814;57.786;12.080;2023-01-08T05:21:17;10.93;;;9.77;;
13483;SDS011;6814;57.786;12.080;2023-01-08T05:23:43;11.27;;;10.07;;
13483;SDS011;6814;57.786;12.080;2023-01-08T05:26:10;13.07;;;10.17;;
13483;SDS011;6814;57.786;12.080;2023-01-08T05:28:36;9.83;;;8.80;;
13483;SDS011;6814;57.786;12.080;2023-01-08T05:31:03;13.37;;;10.47;;
13483;SDS011;6814;57.786;12.080;2023-01-08T05:33:31;10.60;;;9.50;;
13483;SDS011;6814;57.786;12.080;2023-01-08T05:35:57;11.97;;;9.43;;
13483;SDS011;6814;57.786;12.080;2023-01-08T05:38:24;12.57;;;10.03;;
13483;SDS011;6814;57.786;12.080;2023-01-08T05:40:50;11.27;;;10.07;;
13483;SDS011;6814;57.786;12.080;2023-01-08T05:43:17;12.27;;;10.07;;
13483;SDS011;6814;57.786;12.080;2023-01-08T05:45:43;12.63;;;9.47;;
13483;SDS011;6814;57.786;12.080;2023-01-08T05:48:10;10.90;;;9.80;;
13483;SDS011;6814;57.786;12.080;2023-01-08T05:50:37;11.83;;;9.60;;
13483;SDS011;6814;57.786;12.080;2023-01-08T05:53:05;11.50;;;9.57;;
13483;SDS011;6814;57.786;12.080;2023-01-08T05:55:31;12.40;;;8.93;;
13483;SDS011;6814;57.786;12.080;2023-01-08T05:57:59;12.80;;;9.20;;
13483;SDS011;6814;57.786;12.080;2023-01-08T06:00:25;10.27;;;8.47;;
13483;SDS011;6814;57.786;12.080;2023-01-08T06:02:52;10.53;;;8.43;;
13483;SDS011;6814;57.786;12.080;2023-01-08T06:05:18;9.33;;;7.17;;
13483;SDS011;6814;57.786;12.080;2023-01-08T06:07:46;10.80;;;8.20;;
13483;SDS011;6814;57.786;12.080;2023-01-08T06:10:12;11.67;;;8.40;;
13483;SDS011;6814;57.786;12.080;2023-01-08T06:12:39;9.33;;;7.87;;
13483;SDS011;6814;57.786;12.080;2023-01-08T06:15:06;11.13;;;8.27;;
13483;SDS011;6814;57.786;12.080;2023-01-08T06:17:33;10.37;;;7.80;;
13483;SDS011;6814;57.786;12.080;2023-01-08T06:20:00;7.93;;;7.03;;
13483;SDS011;6814;57.786;12.080;2023-01-08T06:22:26;9.00;;;7.60;;
13483;SDS011;6814;57.786;12.080;2023-01-08T06:24:54;8.63;;;7.47;;
13483;SDS011;6814;57.786;12.080;2023-01-08T06:27:20;10.30;;;7.50;;
13483;SDS011;6814;57.786;12.080;2023-01-08T06:29:47;10.30;;;7.70;;
13483;SDS011;6814;57.786;12.080;2023-01-08T06:32:13;9.47;;;7.40;;
13483;SDS011;6814;57.786;12.080;2023-01-08T06:34:39;12.87;;;8.37;;
13483;SDS011;6814;57.786;12.080;2023-01-08T06:37:06;8.40;;;7.50;;
13483;SDS011;6814;57.786;12.080;2023-01-08T06:39:32;10.83;;;7.40;;
13483;SDS011;6814;57.786;12.080;2023-01-08T06:42:00;8.03;;;7.07;;
13483;SDS011;6814;57.786;12.080;2023-01-08T06:44:27;8.20;;;6.57;;
13483;SDS011;6814;57.786;12.080;2023-01-08T06:46:53;8.57;;;6.30;;
13483;SDS011;6814;57.786;12.080;2023-01-08T06:49:20;8.07;;;6.80;;
13483;SDS011;6814;57.786;12.080;2023-01-08T06:51:47;9.87;;;6.87;;
13483;SDS011;6814;57.786;12.080;2023-01-08T06:54:13;7.80;;;7.00;;
13483;SDS011;6814;57.786;12.080;2023-01-08T06:56:39;7.70;;;6.90;;
13483;SDS011;6814;57.786;12.080;2023-01-08T06:59:07;8.13;;;7.17;;
13483;SDS011;6814;57.786;12.080;2023-01-08T07:01:34;8.37;;;7.00;;
13483;SDS011;6814;57.786;12.080;2023-01-08T07:04:00;9.63;;;7.23;;
13483;SDS011;6814;57.786;12.080;2023-01-08T07:06:26;8.03;;;7.20;;
13483;SDS011;6814;57.786;12.080;2023-01-08T07:08:53;10.20;;;7.67;;
13483;SDS011;6814;57.786;12.080;2023-01-08T07:11:19;9.97;;;7.87;;
13483;SDS011;6814;57.786;12.080;2023-01-08T07:13:46;10.20;;;7.40;;
13483;SDS011;6814;57.786;12.080;2023-01-08T07:16:16;9.30;;;7.57;;
13483;SDS011;6814;57.786;12.080;2023-01-08T07:18:42;10.90;;;8.90;;
13483;SDS011;6814;57.786;12.080;2023-01-08T07:21:09;13.30;;;8.97;;
13483;SDS011;6814;57.786;12.080;2023-01-08T07:23:35;11.27;;;9.30;;
13483;SDS011;6814;57.786;12.080;2023-01-08T07:26:02;13.60;;;10.10;;
13483;SDS011;6814;57.786;12.080;2023-01-08T07:28:30;11.37;;;9.63;;
13483;SDS011;6814;57.786;12.080;2023-01-08T07:30:57;14.77;;;11.30;;
13483;SDS011;6814;57.786;12.080;2023-01-08T07:33:25;12.27;;;10.33;;
13483;SDS011;6814;57.786;12.080;2023-01-08T07:35:51;16.57;;;11.07;;
13483;SDS011;6814;57.786;12.080;2023-01-08T07:38:20;15.67;;;12.67;;
13483;SDS011;6814;57.786;12.080;2023-01-08T07:40:46;17.57;;;12.10;;
13483;SDS011;6814;57.786;12.080;2023-01-08T07:43:13;18.20;;;12.27;;
13483;SDS011;6814;57.786;12.080;2023-01-08T07:45:40;19.67;;;13.13;;
13483;SDS011;6814;57.786;12.080;2023-01-08T07:48:06;19.40;;;12.83;;
13483;SDS011;6814;57.786;12.080;2023-01-08T07:50:36;17.43;;;13.80;;
13483;SDS011;6814;57.786;12.080;2023-01-08T07:53:04;20.93;;;13.07;;
13483;SDS011;6814;57.786;12.080;2023-01-08T07:55:30;19.60;;;13.53;;
13483;SDS011;6814;57.786;12.080;2023-01-08T07:57:57;18.40;;;13.80;;
13483;SDS011;6814;57.786;12.080;2023-01-08T08:00:24;18.23;;;13.50;;
13483;SDS011;6814;57.786;12.080;2023-01-08T08:02:50;21.80;;;14.00;;
13483;SDS011;6814;57.786;12.080;2023-01-08T08:05:17;23.87;;;13.67;;
13483;SDS011;6814;57.786;12.080;2023-01-08T08:07:45;20.37;;;14.20;;
13483;SDS011;6814;57.786;12.080;2023-01-08T08:10:11;23.50;;;13.80;;
13483;SDS011;6814;57.786;12.080;2023-01-08T08:12:38;21.13;;;13.30;;
13483;SDS011;6814;57.786;12.080;2023-01-08T08:15:05;21.23;;;12.73;;
13483;SDS011;6814;57.786;12.080;2023-01-08T08:17:32;20.67;;;14.03;;
13483;SDS011;6814;57.786;12.080;2023-01-08T08:19:58;19.40;;;13.03;;
13483;SDS011;6814;57.786;12.080;2023-01-08T08:22:25;22.13;;;14.13;;
13483;SDS011;6814;57.786;12.080;2023-01-08T08:24:53;23.40;;;14.23;;
13483;SDS011;6814;57.786;12.080;2023-01-08T08:27:19;21.20;;;13.77;;
13483;SDS011;6814;57.786;12.080;2023-01-08T08:29:47;22.70;;;13.43;;
13483;SDS011;6814;57.786;12.080;2023-01-08T08:32:14;26.10;;;14.73;;
13483;SDS011;6814;57.786;12.080;2023-01-08T08:34:40;24.43;;;15.83;;
13483;SDS011;6814;57.786;12.080;2023-01-08T08:37:06;19.43;;;13.87;;
13483;SDS011;6814;57.786;12.080;2023-01-08T08:39:33;23.33;;;14.43;;
13483;SDS011;6814;57.786;12.080;2023-01-08T08:42:01;22.40;;;14.17;;
13483;SDS011;6814;57.786;12.080;2023-01-08T08:44:27;25.50;;;14.87;;
13483;SDS011;6814;57.786;12.080;2023-01-08T08:46:54;21.17;;;13.33;;
13483;SDS011;6814;57.786;12.080;2023-01-08T08:49:20;19.03;;;13.93;;
13483;SDS011;6814;57.786;12.080;2023-01-08T08:51:47;23.23;;;14.73;;
13483;SDS011;6814;57.786;12.080;2023-01-08T08:54:13;18.90;;;14.60;;
13483;SDS011;6814;57.786;12.080;2023-01-08T08:56:39;20.40;;;14.23;;
13483;SDS011;6814;57.786;12.080;2023-01-08T08:59:08;23.73;;;14.80;;
13483;SDS011;6814;57.786;12.080;2023-01-08T09:01:37;19.83;;;14.23;;
13483;SDS011;6814;57.786;12.080;2023-01-08T09:04:03;23.83;;;15.07;;
13483;SDS011;6814;57.786;12.080;2023-01-08T09:06:29;21.30;;;14.27;;
13483;SDS011;6814;57.786;12.080;2023-01-08T09:08:56;21.93;;;14.27;;
13483;SDS011;6814;57.786;12.080;2023-01-08T09:11:23;20.60;;;14.53;;
13483;SDS011;6814;57.786;12.080;2023-01-08T09:13:50;22.20;;;14.80;;
13483;SDS011;6814;57.786;12.080;2023-01-08T09:16:17;23.93;;;14.33;;
13483;SDS011;6814;57.786;12.080;2023-01-08T09:18:44;20.77;;;13.90;;
13483;SDS011;6814;57.786;12.080;2023-01-08T09:21:11;22.23;;;15.43;;
13483;SDS011;6814;57.786;12.080;2023-01-08T09:23:37;21.60;;;14.27;;
13483;SDS011;6814;57.786;12.080;2023-01-08T09:26:04;20.03;;;13.40;;
13483;SDS011;6814;57.786;12.080;2023-01-08T09:28:31;22.50;;;13.63;;
13483;SDS011;6814;57.786;12.080;2023-01-08T09:30:59;24.73;;;13.77;;
13483;SDS011;6814;57.786;12.080;2023-01-08T09:33:27;19.97;;;12.97;;
13483;SDS011;6814;57.786;12.080;2023-01-08T09:35:54;19.33;;;12.37;;
13483;SDS011;6814;57.786;12.080;2023-01-08T09:38:20;17.97;;;12.73;;
13483;SDS011;6814;57.786;12.080;2023-01-08T09:40:48;15.77;;;11.73;;
13483;SDS011;6814;57.786;12.080;2023-01-08T09:43:17;19.77;;;13.33;;
13483;SDS011;6814;57.786;12.080;2023-01-08T09:45:47;16.27;;;11.63;;
13483;SDS011;6814;57.786;12.080;2023-01-08T09:48:15;17.13;;;12.57;;
13483;SDS011;6814;57.786;12.080;2023-01-08T09:50:43;17.43;;;12.13;;
13483;SDS011;6814;57.786;12.080;2023-01-08T09:53:11;17.63;;;12.57;;
13483;SDS011;6814;57.786;12.080;2023-01-08T09:55:38;21.13;;;12.77;;
13483;SDS011;6814;57.786;12.080;2023-01-08T09:58:07;20.23;;;13.57;;
13483;SDS011;6814;57.786;12.080;2023-01-08T10:00:36;21.37;;;12.87;;
13483;SDS011;6814;57.786;12.080;2023-01-08T10:03:03;21.87;;;13.80;;
13483;SDS011;6814;57.786;12.080;2023-01-08T10:05:29;23.33;;;13.47;;
13483;SDS011;6814;57.786;12.080;2023-01-08T10:07:57;20.50;;;14.13;;
13483;SDS011;6814;57.786;12.080;2023-01-08T10:10:24;20.77;;;13.60;;
13483;SDS011;6814;57.786;12.080;2023-01-08T10:12:52;20.03;;;13.27;;
13483;SDS011;6814;57.786;12.080;2023-01-08T10:15:19;19.70;;;13.87;;
13483;SDS011;6814;57.786;12.080;2023-01-08T10:17:47;20.83;;;13.23;;
13483;SDS011;6814;57.786;12.080;2023-01-08T10:20:16;20.83;;;13.90;;
13483;SDS011;6814;57.786;12.080;2023-01-08T10:22:43;16.43;;;11.87;;
13483;SDS011;6814;57.786;12.080;2023-01-08T10:25:14;19.03;;;13.07;;
13483;SDS011;6814;57.786;12.080;2023-01-08T10:27:44;20.77;;;12.80;;
13483;SDS011;6814;57.786;12.080;2023-01-08T10:30:14;17.73;;;11.90;;
13483;SDS011;6814;57.786;12.080;2023-01-08T10:32:44;18.37;;;12.60;;
13483;SDS011;6814;57.786;12.080;2023-01-08T10:35:13;18.60;;;12.97;;
13483;SDS011;6814;57.786;12.080;2023-01-08T10:37:41;20.10;;;13.30;;
13483;SDS011;6814;57.786;12.080;2023-01-08T10:40:19;17.10;;;12.83;;
13483;SDS011;6814;57.786;12.080;2023-01-08T10:42:47;18.63;;;12.43;;
13483;SDS011;6814;57.786;12.080;2023-01-08T10:45:15;18.97;;;12.70;;
13483;SDS011;6814;57.786;12.080;2023-01-08T10:47:44;18.13;;;12.03;;
13483;SDS011;6814;57.786;12.080;2023-01-08T10:50:14;19.37;;;13.20;;
13483;SDS011;6814;57.786;12.080;2023-01-08T10:52:50;18.83;;;12.33;;
13483;SDS011;6814;57.786;12.080;2023-01-08T10:55:23;16.00;;;13.23;;
13483;SDS011;6814;57.786;12.080;2023-01-08T10:57:53;20.00;;;14.20;;
13483;SDS011;6814;57.786;12.080;2023-01-08T11:00:21;16.83;;;13.00;;
13483;SDS011;6814;57.786;12.080;2023-01-08T11:02:47;20.50;;;13.00;;
13483;SDS011;6814;57.786;12.080;2023-01-08T11:05:15;17.07;;;13.17;;
13483;SDS011;6814;57.786;12.080;2023-01-08T11:07:41;18.77;;;13.07;;
13483;SDS011;6814;57.786;12.080;2023-01-08T11:10:19;16.47;;;14.17;;
13483;SDS011;6814;57.786;12.080;2023-01-08T11:12:48;19.37;;;13.53;;
13483;SDS011;6814;57.786;12.080;2023-01-08T11:15:24;17.60;;;13.33;;
13483;SDS011;6814;57.786;12.080;2023-01-08T11:17:53;16.47;;;13.40;;
13483;SDS011;6814;57.786;12.080;2023-01-08T11:20:20;18.00;;;12.73;;
13483;SDS011;6814;57.786;12.080;2023-01-08T11:22:47;18.10;;;14.10;;
13483;SDS011;6814;57.786;12.080;2023-01-08T11:25:13;16.60;;;13.50;;
13483;SDS011;6814;57.786;12.080;2023-01-08T11:27:43;21.00;;;14.00;;
13483;SDS011;6814;57.786;12.080;2023-01-08T11:30:12;17.50;;;13.17;;
13483;SDS011;6814;57.786;12.080;2023-01-08T11:32:40;17.33;;;13.63;;
13483;SDS011;6814;57.786;12.080;2023-01-08T11:35:12;18.63;;;13.50;;
13483;SDS011;6814;57.786;12.080;2023-01-08T11:37:39;20.47;;;12.87;;
13483;SDS011;6814;57.786;12.080;2023-01-08T11:40:10;15.90;;;12.83;;
13483;SDS011;6814;57.786;12.080;2023-01-08T11:42:45;17.67;;;13.90;;
13483;SDS011;6814;57.786;12.080;2023-01-08T11:45:19;18.90;;;12.97;;
13483;SDS011;6814;57.786;12.080;2023-01-08T11:47:56;16.23;;;13.90;;
13483;SDS011;6814;57.786;12.080;2023-01-08T11:50:27;20.23;;;14.20;;
13483;SDS011;6814;57.786;12.080;2023-01-08T11:53:06;20.40;;;13.50;;
13483;SDS011;6814;57.786;12.080;2023-01-08T11:55:41;21.07;;;13.60;;
13483;SDS011;6814;57.786;12.080;2023-01-08T11:58:12;18.90;;;13.13;;
13483;SDS011;6814;57.786;12.080;2023-01-08T12:00:54;21.17;;;13.47;;
13483;SDS011;6814;57.786;12.080;2023-01-08T12:03:25;15.40;;;12.20;;
13483;SDS011;6814;57.786;12.080;2023-01-08T12:05:55;20.73;;;13.00;;
13483;SDS011;6814;57.786;12.080;2023-01-08T12:08:26;20.60;;;13.63;;
13483;SDS011;6814;57.786;12.080;2023-01-08T12:10:59;19.77;;;14.03;;
13483;SDS011;6814;57.786;12.080;2023-01-08T12:13:33;19.63;;;13.83;;
13483;SDS011;6814;57.786;12.080;2023-01-08T12:16:07;22.50;;;13.93;;
13483;SDS011;6814;57.786;12.080;2023-01-08T12:18:35;18.50;;;14.20;;
13483;SDS011;6814;57.786;12.080;2023-01-08T12:21:09;17.30;;;13.40;;
13483;SDS011;6814;57.786;12.080;2023-01-08T12:23:42;20.20;;;14.23;;
13483;SDS011;6814;57.786;12.080;2023-01-08T12:26:16;18.27;;;12.97;;
13483;SDS011;6814;57.786;12.080;2023-01-08T12:28:57;21.40;;;14.57;;
13483;SDS011;6814;57.786;12.080;2023-01-08T12:31:31;18.00;;;13.43;;
13483;SDS011;6814;57.786;12.080;2023-01-08T12:34:01;21.17;;;13.00;;
13483;SDS011;6814;57.786;12.080;2023-01-08T12:36:32;19.27;;;13.10;;
13483;SDS011;6814;57.786;12.080;2023-01-08T12:39:02;18.90;;;13.87;;
13483;SDS011;6814;57.786;12.080;2023-01-08T12:41:29;21.60;;;13.47;;
13483;SDS011;6814;57.786;12.080;2023-01-08T12:43:58;18.50;;;13.20;;
13483;SDS011;6814;57.786;12.080;2023-01-08T12:46:27;21.73;;;13.40;;
13483;SDS011;6814;57.786;12.080;2023-01-08T12:48:55;22.73;;;14.30;;
13483;SDS011;6814;57.786;12.080;2023-01-08T12:51:24;22.07;;;14.33;;
13483;SDS011;6814;57.786;12.080;2023-01-08T12:53:53;22.37;;;13.57;;
13483;SDS011;6814;57.786;12.080;2023-01-08T12:56:22;18.47;;;12.90;;
13483;SDS011;6814;57.786;12.080;2023-01-08T12:58:58;23.07;;;12.97;;
13483;SDS011;6814;57.786;12.080;2023-01-08T13:01:32;20.33;;;13.43;;
13483;SDS011;6814;57.786;12.080;2023-01-08T13:04:03;18.03;;;13.00;;
13483;SDS011;6814;57.786;12.080;2023-01-08T13:06:30;20.00;;;12.90;;
13483;SDS011;6814;57.786;12.080;2023-01-08T13:08:56;18.80;;;12.90;;
13483;SDS011;6814;57.786;12.080;2023-01-08T13:11:24;21.47;;;12.33;;
13483;SDS011;6814;57.786;12.080;2023-01-08T13:13:57;17.00;;;12.60;;
13483;SDS011;6814;57.786;12.080;2023-01-08T13:16:24;21.67;;;13.27;;
13483;SDS011;6814;57.786;12.080;2023-01-08T13:18:54;19.17;;;11.67;;
13483;SDS011;6814;57.786;12.080;2023-01-08T13:21:32;20.13;;;12.13;;
13483;SDS011;6814;57.786;12.080;2023-01-08T13:24:00;17.63;;;12.13;;
13483;SDS011;6814;57.786;12.080;2023-01-08T13:26:27;16.80;;;11.40;;
13483;SDS011;6814;57.786;12.080;2023-01-08T13:29:04;18.50;;;11.90;;
13483;SDS011;6814;57.786;12.080;2023-01-08T13:31:37;22.30;;;13.33;;
13483;SDS011;6814;57.786;12.080;2023-01-08T13:34:03;18.40;;;11.97;;
13483;SDS011;6814;57.786;12.080;2023-01-08T13:36:53;18.63;;;11.83;;
13483;SDS011;6814;57.786;12.080;2023-01-08T13:39:20;25.60;;;13.30;;
13483;SDS011;6814;57.786;12.080;2023-01-08T13:41:56;19.10;;;12.90;;
13483;SDS011;6814;57.786;12.080;2023-01-08T13:44:24;21.30;;;12.73;;
13483;SDS011;6814;57.786;12.080;2023-01-08T13:46:52;23.40;;;13.37;;
13483;SDS011;6814;57.786;12.080;2023-01-08T13:49:22;15.90;;;13.37;;
13483;SDS011;6814;57.786;12.080;2023-01-08T13:51:52;21.50;;;12.97;;
13483;SDS011;6814;57.786;12.080;2023-01-08T13:54:20;22.97;;;13.23;;
13483;SDS011;6814;57.786;12.080;2023-01-08T13:56:51;20.33;;;13.77;;
13483;SDS011;6814;57.786;12.080;2023-01-08T13:59:19;19.47;;;14.50;;
13483;SDS011;6814;57.786;12.080;2023-01-08T14:01:52;17.03;;;13.10;;
13483;SDS011;6814;57.786;12.080;2023-01-08T14:04:19;20.60;;;14.27;;
13483;SDS011;6814;57.786;12.080;2023-01-08T14:06:45;18.23;;;13.20;;
13483;SDS011;6814;57.786;12.080;2023-01-08T14:09:17;18.63;;;14.10;;
13483;SDS011;6814;57.786;12.080;2023-01-08T14:11:45;18.33;;;13.47;;
13483;SDS011;6814;57.786;12.080;2023-01-08T14:14:14;18.10;;;13.70;;
13483;SDS011;6814;57.786;12.080;2023-01-08T14:16:41;19.67;;;13.73;;
13483;SDS011;6814;57.786;12.080;2023-01-08T14:19:10;18.73;;;12.90;;
13483;SDS011;6814;57.786;12.080;2023-01-08T14:21:38;19.93;;;13.37;;
13483;SDS011;6814;57.786;12.080;2023-01-08T14:24:05;20.67;;;13.53;;
13483;SDS011;6814;57.786;12.080;2023-01-08T14:26:34;18.53;;;13.70;;
13483;SDS011;6814;57.786;12.080;2023-01-08T14:29:01;23.40;;;14.77;;
13483;SDS011;6814;57.786;12.080;2023-01-08T14:31:28;21.70;;;16.13;;
13483;SDS011;6814;57.786;12.080;2023-01-08T14:33:55;17.43;;;13.77;;